Richardson, Mississippi
Current Conditions -  °F | °C
As of 6:53 AM on Monday 22 Dec 2014 (Local Time) from KASD Reporting Station
Haze Haze  
Wind Chill: 58°   Ceiling: 7000
Heat Index: 58°   Visibility: 5mi
Dew Point: 56°   Wind: 3mph
Humidity: 93%   Direction: 100°E
Pressure: 29.85"   Gusts: NA
Location:  30.5854°N, 89.6932°W
Report Text: KASD 221253Z AUTO 10003KT 5SM BR OVC070 14/13 A2985 RMK AO2 SLP108 T01440133
Loading
Personal Weather Stations






























Interactive Weather Map New forecast layout! Learn more

10-Day Weather Forecast

Advertisements
Track Severe Weather on mobile